Time;durP1;ratioP1;P1;durP2;ratioP2;P2;SDS_P1;SDS_P2;PMS_P1;PMS_P2;Temp;Humidity;BMP_temperature;BMP_pressure;BME280_temperature;BME280_humidity;BME280_pressure;Samples;Min_cycle;Max_cycle;Signal;HPM_P1;HPM_P2
2023/12/21 00:01:54;;;;;;;;;;;;;;;;;;6252833;28;19944;-86
2023/12/21 00:04:54;;;;;;;;;;;;;;;;;;6259755;28;19956;-86
2023/12/21 00:07:54;;;;;;;;;;;;;;;;;;6258760;28;20007;-87
2023/12/21 00:10:54;;;;;;;;;;;;;;;;;;6258687;28;19953;-87
2023/12/21 00:13:54;;;;;;;;;;;;;;;;;;6254521;28;20004;-87
2023/12/21 00:16:54;;;;;;;;;;;;;;;;;;6251116;28;19921;-86
2023/12/21 00:19:55;;;;;;;;;;;;;;;;;;6253385;28;19913;-88
2023/12/21 00:22:55;;;;;;;;;;;;;;;;;;6255238;28;19920;-88
2023/12/21 00:25:55;;;;;;;;;;;;;;;;;;6255011;28;20285;-86
2023/12/21 00:28:55;;;;;;;;;;;;;;;;;;6255768;28;19913;-86
2023/12/21 00:31:55;;;;;;;;;;;;;;;;;;6254359;28;19921;-86
2023/12/21 00:34:55;;;;;;;;;;;;;;;;;;6251920;28;20391;-86
2023/12/21 00:37:56;;;;;;;;;;;;;;;;;;6256989;28;19929;-86
2023/12/21 00:40:59;;;;;;;;;;;;;;;;;;6251649;28;20036;-86
2023/12/21 00:43:59;;;;;;;;;;;;;;;;;;6254564;28;19917;-87
2023/12/21 00:46:59;;;;;;;;;;;;;;;;;;6258953;28;19998;-87
2023/12/21 00:49:59;;;;;;;;;;;;;;;;;;6255631;28;19913;-86
2023/12/21 00:52:59;;;;;;;;;;;;;;;;;;6250533;28;19913;-87
2023/12/21 00:55:59;;;;;;;;;;;;;;;;;;6257237;28;20285;-86
2023/12/21 00:59:00;;;;;;;;;;;;;;;;;;6251497;28;19948;-89
2023/12/21 01:02:01;;;;;;;;;;;;;;;;;;6251122;28;20397;-87
2023/12/21 01:05:01;;;;;;;;;;;;;;;;;;6254336;28;19960;-85
2023/12/21 01:08:02;;;;;;;;;;;;;;;;;;6251410;28;19927;-87
2023/12/21 01:11:02;;;;;;;;;;;;;;;;;;6259135;28;19938;-86
2023/12/21 01:14:02;;;;;;;;;;;;;;;;;;6254082;28;19917;-86
2023/12/21 01:17:02;;;;;;;;;;;;;;;;;;6255987;28;19925;-87
2023/12/21 01:20:02;;;;;;;;;;;;;;;;;;6252247;28;19917;-87
2023/12/21 01:23:03;;;;;;;;;;;;;;;;;;6257427;28;19917;-87
2023/12/21 01:26:03;;;;;;;;;;;;;;;;;;6253844;28;19917;-87
2023/12/21 01:29:03;;;;;;;;;;;;;;;;;;6256264;28;20369;-87
2023/12/21 01:32:03;;;;;;;;;;;;;;;;;;6253794;28;20464;-86
2023/12/21 01:35:03;;;;;;;;;;;;;;;;;;6252222;28;19913;-86
2023/12/21 01:38:03;;;;;;;;;;;;;;;;;;6256894;28;19925;-87
2023/12/21 01:41:04;;;;;;;;;;;;;;;;;;6254626;28;20249;-87
2023/12/21 01:44:04;;;;;;;;;;;;;;;;;;6251090;28;19917;-87
2023/12/21 01:47:04;;;;;;;;;;;;;;;;;;6253046;28;20007;-86
2023/12/21 01:50:04;;;;;;;;;;;;;;;;;;6255351;28;19920;-86
2023/12/21 01:53:04;;;;;;;;;;;;;;;;;;6255184;28;19970;-86
2023/12/21 01:56:04;;;;;;;;;;;;;;;;;;6251496;28;19921;-86
2023/12/21 01:59:04;;;;;;;;;;;;;;;;;;6257567;28;20011;-87
2023/12/21 02:02:05;;;;;;;;;;;;;;;;;;5906451;28;10000421;-86
2023/12/21 02:05:05;;;;;;;;;;;;;;;;;;6252184;28;19956;-86
2023/12/21 02:08:05;;;;;;;;;;;;;;;;;;6256405;28;19913;-86
2023/12/21 02:11:05;;;;;;;;;;;;;;;;;;6265788;28;19990;-85
2023/12/21 02:14:05;;;;;;;;;;;;;;;;;;6260968;28;19913;-86
2023/12/21 02:17:06;;;;;;;;;;;;;;;;;;6266763;28;19921;-86
2023/12/21 02:20:06;;;;;;;;;;;;;;;;;;6261103;28;19921;-86
2023/12/21 02:23:06;;;;;;;;;;;;;;;;;;6253748;28;19913;-86
2023/12/21 02:26:06;;;;;;;;;;;;;;;;;;6255358;28;19982;-87
2023/12/21 02:29:06;;;;;;;;;;;;;;;;;;6252853;28;19913;-87
2023/12/21 02:32:06;;;;;;;;;;;;;;;;;;6250744;28;19913;-86
2023/12/21 02:35:06;;;;;;;;;;;;;;;;;;6256504;28;19920;-86
2023/12/21 02:38:07;;;;;;;;;;;;;;;;;;6258752;28;19921;-86
2023/12/21 02:41:07;;;;;;;;;;;;;;;;;;6260324;28;19921;-87
2023/12/21 02:44:07;;;;;;;;;;;;;;;;;;6255526;28;19914;-86
2023/12/21 02:47:07;;;;;;;;;;;;;;;;;;6264200;28;19919;-86
2023/12/21 02:50:07;;;;;;;;;;;;;;;;;;6258425;28;19914;-86
2023/12/21 02:53:07;;;;;;;;;;;;;;;;;;6258393;28;19912;-87
2023/12/21 02:56:07;;;;;;;;;;;;;;;;;;6252573;28;19917;-87
2023/12/21 02:59:08;;;;;;;;;;;;;;;;;;5564018;28;10000286;-86
2023/12/21 03:02:08;;;;;;;;;;;;;;;;;;6254886;28;20438;-86
2023/12/21 03:05:08;;;;;;;;;;;;;;;;;;6250400;28;19918;-85
2023/12/21 03:08:08;;;;;;;;;;;;;;;;;;6252354;28;19936;-86
2023/12/21 03:11:08;;;;;;;;;;;;;;;;;;6251019;28;19921;-86
2023/12/21 03:14:08;;;;;;;;;;;;;;;;;;6248922;28;19971;-89
2023/12/21 03:17:08;;;;;;;;;;;;;;;;;;6258391;28;19928;-90
2023/12/21 03:20:09;;;;;;;;;;;;;;;;;;6253665;28;20043;-89
2023/12/21 03:23:09;;;;;;;;;;;;;;;;;;6248485;28;19939;-90
2023/12/21 03:26:09;;;;;;;;;;;;;;;;;;6248929;28;20453;-90
2023/12/21 03:29:09;;;;;;;;;;;;;;;;;;6252149;28;20428;-89
2023/12/21 03:32:09;;;;;;;;;;;;;;;;;;6255735;28;19919;-89
2023/12/21 03:35:09;;;;;;;;;;;;;;;;;;6253440;28;20020;-90
2023/12/21 03:38:10;;;;;;;;;;;;;;;;;;6253519;28;20020;-89
2023/12/21 03:41:10;;;;;;;;;;;;;;;;;;6252659;28;19916;-90
2023/12/21 03:44:10;;;;;;;;;;;;;;;;;;6249206;28;19945;-89
2023/12/21 03:47:10;;;;;;;;;;;;;;;;;;6257490;28;19927;-89
2023/12/21 03:50:10;;;;;;;;;;;;;;;;;;6256250;28;20000;-88
2023/12/21 03:53:10;;;;;;;;;;;;;;;;;;6251288;28;19971;-88
2023/12/21 03:56:10;;;;;;;;;;;;;;;;;;6248417;28;19963;-88
2023/12/21 03:59:11;;;;;;;;;;;;;;;;;;6250926;28;19933;-89
2023/12/21 04:02:11;;;;;;;;;;;;;;;;;;6267371;28;19927;-88
2023/12/21 04:05:11;;;;;;;;;;;;;;;;;;6275859;28;19984;-88
2023/12/21 04:08:11;;;;;;;;;;;;;;;;;;6279214;28;20012;-88
2023/12/21 04:11:11;;;;;;;;;;;;;;;;;;6277376;28;19951;-88
2023/12/21 04:14:11;;;;;;;;;;;;;;;;;;6254719;28;19912;-88
2023/12/21 04:17:12;;;;;;;;;;;;;;;;;;6262027;28;19930;-89
2023/12/21 04:20:12;;;;;;;;;;;;;;;;;;6279991;28;19918;-89
2023/12/21 04:23:12;;;;;;;;;;;;;;;;;;6268578;28;19943;-89
2023/12/21 04:26:12;;;;;;;;;;;;;;;;;;6277626;28;19920;-89
2023/12/21 04:29:12;;;;;;;;;;;;;;;;;;6266567;28;19917;-89
2023/12/21 04:32:12;;;;;;;;;;;;;;;;;;6262750;28;19917;-89
2023/12/21 04:35:12;;;;;;;;;;;;;;;;;;6259797;28;19920;-88
2023/12/21 04:38:12;;;;;;;;;;;;;;;;;;6278409;28;19921;-89
2023/12/21 04:41:13;;;;;;;;;;;;;;;;;;6256228;28;19966;-88
2023/12/21 04:44:13;;;;;;;;;;;;;;;;;;6277164;28;19924;-88
2023/12/21 04:47:13;;;;;;;;;;;;;;;;;;6273827;28;19913;-88
2023/12/21 04:50:13;;;;;;;;;;;;;;;;;;6276108;28;19913;-87
2023/12/21 04:53:13;;;;;;;;;;;;;;;;;;6276744;28;19962;-88
2023/12/21 04:56:13;;;;;;;;;;;;;;;;;;6274897;28;19920;-88
2023/12/21 04:59:13;;;;;;;;;;;;;;;;;;6271111;28;19912;-88
2023/12/21 05:02:14;;;;;;;;;;;;;;;;;;6257672;28;19921;-88
2023/12/21 05:05:14;;;;;;;;;;;;;;;;;;6247531;28;20020;-88
2023/12/21 05:08:14;;;;;;;;;;;;;;;;;;6251010;28;19936;-87
2023/12/21 05:11:14;;;;;;;;;;;;;;;;;;6245877;28;20630;-88
2023/12/21 05:14:14;;;;;;;;;;;;;;;;;;6254198;28;20223;-88
2023/12/21 05:17:14;;;;;;;;;;;;;;;;;;6249742;28;19924;-88
2023/12/21 05:20:17;;;;;;;;;;;;;;;;;;6248906;28;20288;-88
2023/12/21 05:23:17;;;;;;;;;;;;;;;;;;6247178;28;19931;-88
2023/12/21 05:26:17;;;;;;;;;;;;;;;;;;6251715;28;19917;-90
2023/12/21 05:29:17;;;;;;;;;;;;;;;;;;6247996;28;19936;-89
2023/12/21 05:32:17;;;;;;;;;;;;;;;;;;6250875;28;19928;-88
2023/12/21 05:35:17;;;;;;;;;;;;;;;;;;6251677;28;19921;-87
2023/12/21 05:38:17;;;;;;;;;;;;;;;;;;6244891;28;19920;-89
2023/12/21 05:41:18;;;;;;;;;;;;;;;;;;6248623;28;19917;-88
2023/12/21 05:44:18;;;;;;;;;;;;;;;;;;6245554;28;19959;-88
2023/12/21 05:47:18;;;;;;;;;;;;;;;;;;6247875;28;19913;-88
2023/12/21 05:50:18;;;;;;;;;;;;;;;;;;6243728;28;19913;-90
2023/12/21 05:53:18;;;;;;;;;;;;;;;;;;6249681;28;19970;-89
2023/12/21 05:56:18;;;;;;;;;;;;;;;;;;6247900;28;20405;-88
2023/12/21 05:59:19;;;;;;;;;;;;;;;;;;6250119;28;20007;-89
2023/12/21 06:02:19;;;;;;;;;;;;;;;;;;6251080;28;20011;-89
2023/12/21 06:05:19;;;;;;;;;;;;;;;;;;6252032;28;19921;-89
2023/12/21 06:08:19;;;;;;;;;;;;;;;;;;6250244;28;19913;-88
2023/12/21 06:11:19;;;;;;;;;;;;;;;;;;6252520;28;19974;-89
2023/12/21 06:14:19;;;;;;;;;;;;;;;;;;6265575;28;19999;-90
2023/12/21 06:17:19;;;;;;;;;;;;;;;;;;6259993;28;20003;-88
2023/12/21 06:20:20;;;;;;;;;;;;;;;;;;6255849;28;19984;-89
2023/12/21 06:23:20;;;;;;;;;;;;;;;;;;6251727;28;19936;-89
2023/12/21 06:26:20;;;;;;;;;;;;;;;;;;6261642;28;19971;-89
2023/12/21 06:29:20;;;;;;;;;;;;;;;;;;6249241;28;19913;-88
2023/12/21 06:32:20;;;;;;;;;;;;;;;;;;6261491;28;19921;-88
2023/12/21 06:35:21;;;;;;;;;;;;;;;;;;6251943;28;19913;-89
2023/12/21 06:38:21;;;;;;;;;;;;;;;;;;6256915;28;19921;-88
2023/12/21 06:41:21;;;;;;;;;;;;;;;;;;6255184;28;19992;-89
2023/12/21 06:44:21;;;;;;;;;;;;;;;;;;6257497;28;19920;-86
2023/12/21 06:47:21;;;;;;;;;;;;;;;;;;6256674;28;19912;-87
2023/12/21 06:50:21;;;;;;;;;;;;;;;;;;6253235;28;19913;-86
2023/12/21 06:53:22;;;;;;;;;;;;;;;;;;6256854;28;19917;-86
2023/12/21 06:56:22;;;;;;;;;;;;;;;;;;6251777;28;20285;-86
2023/12/21 06:59:22;;;;;;;;;;;;;;;;;;6249230;28;19968;-87
2023/12/21 07:02:22;;;;;;;;;;;;;;;;;;6254712;28;19925;-86
2023/12/21 07:05:22;;;;;;;;;;;;;;;;;;6261442;28;20008;-86
2023/12/21 07:08:22;;;;;;;;;;;;;;;;;;6258464;28;20008;-87
2023/12/21 07:11:23;;;;;;;;;;;;;;;;;;6256992;28;20388;-87
2023/12/21 07:14:23;;;;;;;;;;;;;;;;;;6250816;28;19913;-87
2023/12/21 07:17:23;;;;;;;;;;;;;;;;;;6254314;28;19936;-87
2023/12/21 07:20:25;;;;;;;;;;;;;;;;;;6250656;28;20085;-86
2023/12/21 07:23:25;;;;;;;;;;;;;;;;;;6249937;28;19912;-87
2023/12/21 07:26:26;;;;;;;;;;;;;;;;;;6252802;28;19920;-86
2023/12/21 07:29:26;;;;;;;;;;;;;;;;;;6250837;28;20113;-86
2023/12/21 07:32:26;;;;;;;;;;;;;;;;;;6250012;28;20373;-87
2023/12/21 07:35:27;;;;;;;;;;;;;;;;;;6252979;28;20320;-88
2023/12/21 07:38:27;;;;;;;;;;;;;;;;;;6249532;28;19921;-87
2023/12/21 07:41:27;;;;;;;;;;;;;;;;;;6253427;28;19913;-86
2023/12/21 07:44:27;;;;;;;;;;;;;;;;;;6253704;28;19913;-87
2023/12/21 07:47:27;;;;;;;;;;;;;;;;;;6248586;28;19913;-86
2023/12/21 07:50:29;;;;;;;;;;;;;;;;;;6252812;28;19925;-85
2023/12/21 07:53:29;;;;;;;;;;;;;;;;;;6254546;28;20000;-87
2023/12/21 07:56:29;;;;;;;;;;;;;;;;;;6254834;28;19913;-88
2023/12/21 07:59:30;;;;;;;;;;;;;;;;;;6253958;28;20348;-91
2023/12/21 08:02:30;;;;;;;;;;;;;;;;;;6263722;28;19920;-89
2023/12/21 08:05:30;;;;;;;;;;;;;;;;;;6255443;28;20040;-90
2023/12/21 08:08:30;;;;;;;;;;;;;;;;;;6261036;28;21143;-90
2023/12/21 08:11:30;;;;;;;;;;;;;;;;;;6255679;28;20062;-90
2023/12/21 08:14:35;;;;;;;;;;;;;;;;;;6261405;28;19971;-90
2023/12/21 08:17:35;;;;;;;;;;;;;;;;;;6257845;28;20569;-91
2023/12/21 08:20:36;;;;;;;;;;;;;;;;;;6256368;28;20260;-90
2023/12/21 08:23:37;;;;;;;;;;;;;;;;;;6256954;28;19919;-91
2023/12/21 08:26:38;;;;;;;;;;;;;;;;;;6254333;28;19917;-90
2023/12/21 08:29:55;;;;;;;;;;;;;;;;;;6257536;28;19917;-91
2023/12/21 08:33:12;;;;;;;;;;;;;;;;;;6252286;28;19913;-94
2023/12/21 08:36:12;;;;;;;;;;;;;;;;;;6259307;28;19913;-90
2023/12/21 08:39:12;;;;;;;;;;;;;;;;;;6252687;28;19921;-91
2023/12/21 08:42:17;;;;;;;;;;;;;;;;;;6257665;28;19913;-92
2023/12/21 08:45:17;;;;;;;;;;;;;;;;;;6254124;28;19932;-89
2023/12/21 08:48:18;;;;;;;;;;;;;;;;;;6255374;28;20366;-90
2023/12/21 08:51:22;;;;;;;;;;;;;;;;;;6259279;28;19916;-90
2023/12/21 08:54:23;;;;;;;;;;;;;;;;;;6256140;28;19971;-91
2023/12/21 08:57:23;;;;;;;;;;;;;;;;;;6256224;28;19958;-91
2023/12/21 09:00:24;;;;;;;;;;;;;;;;;;6261235;28;20000;-90
2023/12/21 09:03:43;;;;;;;;;;;;;;;;;;6255206;28;19940;-91
2023/12/21 09:06:48;;;;;;;;;;;;;;;;;;6258650;28;19920;-90
2023/12/21 09:09:48;;;;;;;;;;;;;;;;;;6257489;28;19913;-90
2023/12/21 09:13:08;;;;;;;;;;;;;;;;;;6256593;28;20002;-91
2023/12/21 09:16:28;;;;;;;;;;;;;;;;;;6255709;28;20055;-90
2023/12/21 09:19:48;;;;;;;;;;;;;;;;;;6258318;28;20348;-81
2023/12/21 09:22:48;;;;;;;;;;;;;;;;;;6249348;28;19913;-82
2023/12/21 09:25:48;;;;;;;;;;;;;;;;;;6259696;28;19956;-91
2023/12/21 09:28:48;;;;;;;;;;;;;;;;;;6256582;28;19923;-93
2023/12/21 09:31:49;;;;;;;;;;;;;;;;;;6256414;28;20440;-92
2023/12/21 09:34:49;;;;;;;;;;;;;;;;;;6258685;28;19932;-91
2023/12/21 09:37:50;;;;;;;;;;;;;;;;;;6255671;28;19920;-90
2023/12/21 09:40:50;;;;;;;;;;;;;;;;;;6255017;28;19920;-87
2023/12/21 09:43:50;;;;;;;;;;;;;;;;;;6254504;28;19917;-91
2023/12/21 09:46:50;;;;;;;;;;;;;;;;;;6261415;28;19943;-90
2023/12/21 09:49:52;;;;;;;;;;;;;;;;;;6263586;28;20278;-90
2023/12/21 09:52:53;;;;;;;;;;;;;;;;;;6262255;28;19940;-90
2023/12/21 09:55:54;;;;;;;;;;;;;;;;;;6260567;28;19920;-92
2023/12/21 09:58:54;;;;;;;;;;;;;;;;;;6253913;28;19921;-89
2023/12/21 10:01:54;;;;;;;;;;;;;;;;;;6269419;28;19925;-89
2023/12/21 10:04:54;;;;;;;;;;;;;;;;;;6261902;28;19913;-90
2023/12/21 10:07:54;;;;;;;;;;;;;;;;;;6255881;28;19913;-83
2023/12/21 10:10:55;;;;;;;;;;;;;;;;;;6253316;28;19924;-83
2023/12/21 10:13:57;;;;;;;;;;;;;;;;;;6250374;28;19967;-82
2023/12/21 10:16:58;;;;;;;;;;;;;;;;;;6255166;28;19921;-82
2023/12/21 10:19:58;;;;;;;;;;;;;;;;;;6249059;28;19914;-82
2023/12/21 10:22:59;;;;;;;;;;;;;;;;;;6249964;28;19999;-82
2023/12/21 10:25:59;;;;;;;;;;;;;;;;;;6258844;28;19951;-83
2023/12/21 10:28:59;;;;;;;;;;;;;;;;;;6245450;28;20004;-82
2023/12/21 10:31:59;;;;;;;;;;;;;;;;;;6249559;28;19913;-82
2023/12/21 10:34:59;;;;;;;;;;;;;;;;;;6252692;28;20011;-83
2023/12/21 10:38:00;;;;;;;;;;;;;;;;;;6254239;28;19957;-84
2023/12/21 10:41:05;;;;;;;;;;;;;;;;;;6257324;28;19931;-83
2023/12/21 10:44:05;;;;;;;;;;;;;;;;;;6248617;28;19944;-84
2023/12/21 10:47:05;;;;;;;;;;;;;;;;;;6262040;28;19994;-83
2023/12/21 10:50:05;;;;;;;;;;;;;;;;;;6257941;28;19917;-82
2023/12/21 10:53:05;;;;;;;;;;;;;;;;;;6253579;28;19924;-82
2023/12/21 10:56:06;;;;;;;;;;;;;;;;;;6249575;28;19917;-85
2023/12/21 10:59:06;;;;;;;;;;;;;;;;;;6249580;28;19933;-86
2023/12/21 11:02:07;;;;;;;;;;;;;;;;;;6256836;28;19921;-85
2023/12/21 11:05:07;;;;;;;;;;;;;;;;;;6261095;28;20026;-84
2023/12/21 11:08:07;;;;;;;;;;;;;;;;;;6252867;28;19913;-84
2023/12/21 11:11:08;;;;;;;;;;;;;;;;;;6257123;28;19920;-84
2023/12/21 11:14:08;;;;;;;;;;;;;;;;;;6249943;28;19917;-85
2023/12/21 11:17:09;;;;;;;;;;;;;;;;;;6255553;28;19917;-85
2023/12/21 11:20:09;;;;;;;;;;;;;;;;;;6251741;28;19914;-85
2023/12/21 11:23:09;;;;;;;;;;;;;;;;;;6253655;28;19913;-84
2023/12/21 11:26:10;;;;;;;;;;;;;;;;;;6250586;28;19919;-85
2023/12/21 11:29:10;;;;;;;;;;;;;;;;;;6246039;28;19923;-87
2023/12/21 11:32:10;;;;;;;;;;;;;;;;;;6252938;28;19912;-78
2023/12/21 11:35:11;;;;;;;;;;;;;;;;;;6251243;28;19964;-86
2023/12/21 11:38:11;;;;;;;;;;;;;;;;;;6251771;28;20007;-85
2023/12/21 11:41:11;;;;;;;;;;;;;;;;;;6252438;28;20003;-85
2023/12/21 11:44:11;;;;;;;;;;;;;;;;;;6245301;28;19913;-85
2023/12/21 11:47:11;;;;;;;;;;;;;;;;;;6256832;28;19913;-85
2023/12/21 11:50:11;;;;;;;;;;;;;;;;;;6253468;28;19913;-85
2023/12/21 11:53:12;;;;;;;;;;;;;;;;;;6260713;28;19974;-86
2023/12/21 11:56:13;;;;;;;;;;;;;;;;;;6246074;28;20357;-85
2023/12/21 11:59:14;;;;;;;;;;;;;;;;;;6246728;28;20015;-85
2023/12/21 12:02:14;;;;;;;;;;;;;;;;;;6266511;28;19929;-85
2023/12/21 12:05:15;;;;;;;;;;;;;;;;;;6271932;28;19944;-84
2023/12/21 12:08:16;;;;;;;;;;;;;;;;;;6274414;28;19999;-84
2023/12/21 12:11:16;;;;;;;;;;;;;;;;;;6275044;28;20478;-85
2023/12/21 12:14:16;;;;;;;;;;;;;;;;;;6256137;28;19917;-85
2023/12/21 12:17:16;;;;;;;;;;;;;;;;;;6273948;28;20297;-85
2023/12/21 12:20:16;;;;;;;;;;;;;;;;;;6276941;28;20291;-84
2023/12/21 12:23:17;;;;;;;;;;;;;;;;;;6265766;28;20329;-84
2023/12/21 12:26:17;;;;;;;;;;;;;;;;;;6272423;28;20519;-84
2023/12/21 12:29:17;;;;;;;;;;;;;;;;;;6264004;28;19917;-85
2023/12/21 12:32:17;;;;;;;;;;;;;;;;;;6274013;28;20373;-84
2023/12/21 12:35:17;;;;;;;;;;;;;;;;;;6270640;28;19921;-83
2023/12/21 12:38:17;;;;;;;;;;;;;;;;;;6261953;28;20007;-84
2023/12/21 12:41:17;;;;;;;;;;;;;;;;;;6272804;28;20455;-84
2023/12/21 12:44:18;;;;;;;;;;;;;;;;;;6276247;28;19916;-84
2023/12/21 12:47:20;;;;;;;;;;;;;;;;;;6273166;28;19912;-84
2023/12/21 12:50:20;;;;;;;;;;;;;;;;;;6263591;28;19912;-83
2023/12/21 12:53:20;;;;;;;;;;;;;;;;;;6270820;28;19968;-82
2023/12/21 12:56:20;;;;;;;;;;;;;;;;;;6274023;28;19912;-83
2023/12/21 12:59:20;;;;;;;;;;;;;;;;;;6270240;28;19920;-85
2023/12/21 13:02:21;;;;;;;;;;;;;;;;;;6253004;28;19920;-83
2023/12/21 13:05:21;;;;;;;;;;;;;;;;;;6248484;28;19918;-83
2023/12/21 13:08:21;;;;;;;;;;;;;;;;;;6244852;28;19920;-83
2023/12/21 13:11:22;;;;;;;;;;;;;;;;;;6253358;28;19913;-85
2023/12/21 13:14:22;;;;;;;;;;;;;;;;;;6247331;28;20704;-85
2023/12/21 13:17:22;;;;;;;;;;;;;;;;;;6245735;28;20339;-83
2023/12/21 13:20:22;;;;;;;;;;;;;;;;;;6246433;28;20016;-83
2023/12/21 13:23:23;;;;;;;;;;;;;;;;;;6249487;28;19917;-83
2023/12/21 13:26:23;;;;;;;;;;;;;;;;;;6248298;28;19929;-83
2023/12/21 13:29:23;;;;;;;;;;;;;;;;;;6246311;28;19916;-83
2023/12/21 13:32:24;;;;;;;;;;;;;;;;;;6247126;28;19924;-83
2023/12/21 13:35:24;;;;;;;;;;;;;;;;;;6248286;28;19913;-83
2023/12/21 13:38:25;;;;;;;;;;;;;;;;;;6257973;28;20448;-82
2023/12/21 13:41:25;;;;;;;;;;;;;;;;;;6247966;28;20381;-82
2023/12/21 13:44:27;;;;;;;;;;;;;;;;;;6241360;28;20423;-82
2023/12/21 13:47:27;;;;;;;;;;;;;;;;;;6245055;28;19952;-82
2023/12/21 13:50:27;;;;;;;;;;;;;;;;;;6253182;28;19913;-82
2023/12/21 13:53:27;;;;;;;;;;;;;;;;;;6246353;28;19919;-82
2023/12/21 13:56:27;;;;;;;;;;;;;;;;;;6246548;28;20004;-82
2023/12/21 13:59:28;;;;;;;;;;;;;;;;;;6248499;28;19973;-82
2023/12/21 14:02:28;;;;;;;;;;;;;;;;;;6245325;28;19928;-82
2023/12/21 14:05:28;;;;;;;;;;;;;;;;;;6248517;28;19913;-81
2023/12/21 14:08:28;;;;;;;;;;;;;;;;;;6247257;28;19956;-82
2023/12/21 14:11:28;;;;;;;;;;;;;;;;;;6247861;28;20014;-81
2023/12/21 14:14:28;;;;;;;;;;;;;;;;;;6247429;28;19955;-81
2023/12/21 14:17:29;;;;;;;;;;;;;;;;;;6247312;28;19933;-81
2023/12/21 14:20:29;;;;;;;;;;;;;;;;;;6250521;28;20431;-81
2023/12/21 14:23:29;;;;;;;;;;;;;;;;;;6246212;28;19990;-82
2023/12/21 14:26:29;;;;;;;;;;;;;;;;;;6250940;28;20279;-82
2023/12/21 14:29:29;;;;;;;;;;;;;;;;;;6246101;28;20058;-81
2023/12/21 14:32:30;;;;;;;;;;;;;;;;;;6249181;28;19913;-82
2023/12/21 14:35:30;;;;;;;;;;;;;;;;;;6256948;28;19913;-82
2023/12/21 14:38:30;;;;;;;;;;;;;;;;;;6256422;28;19929;-82
2023/12/21 14:41:30;;;;;;;;;;;;;;;;;;6250736;28;20282;-81
2023/12/21 14:44:30;;;;;;;;;;;;;;;;;;6256823;28;19913;-82
2023/12/21 14:47:30;;;;;;;;;;;;;;;;;;6250479;28;20288;-81
2023/12/21 14:50:31;;;;;;;;;;;;;;;;;;6249968;28;19972;-82
2023/12/21 14:53:31;;;;;;;;;;;;;;;;;;6252435;28;20292;-81
2023/12/21 14:56:31;;;;;;;;;;;;;;;;;;6257506;28;20365;-82
2023/12/21 14:59:32;;;;;;;;;;;;;;;;;;6249542;28;19920;-81
2023/12/21 15:02:32;;;;;;;;;;;;;;;;;;6249559;28;19928;-81
2023/12/21 15:05:32;;;;;;;;;;;;;;;;;;6257031;28;19928;-81
2023/12/21 15:08:32;;;;;;;;;;;;;;;;;;6251321;28;19921;-82
2023/12/21 15:11:32;;;;;;;;;;;;;;;;;;6249891;28;20397;-81
2023/12/21 15:14:32;;;;;;;;;;;;;;;;;;6252072;28;19913;-81
2023/12/21 15:17:32;;;;;;;;;;;;;;;;;;6251548;28;19921;-82
2023/12/21 15:20:33;;;;;;;;;;;;;;;;;;6252697;28;19936;-81
2023/12/21 15:23:33;;;;;;;;;;;;;;;;;;6253645;28;19936;-81
2023/12/21 15:26:33;;;;;;;;;;;;;;;;;;6250180;28;19917;-81
2023/12/21 15:29:34;;;;;;;;;;;;;;;;;;6260975;28;20011;-81
2023/12/21 15:32:34;;;;;;;;;;;;;;;;;;6247101;28;20366;-81
2023/12/21 15:35:34;;;;;;;;;;;;;;;;;;6247884;28;19917;-81
2023/12/21 15:38:34;;;;;;;;;;;;;;;;;;6248077;28;19925;-81
2023/12/21 15:41:34;;;;;;;;;;;;;;;;;;6250433;28;19927;-81
2023/12/21 15:44:34;;;;;;;;;;;;;;;;;;6245227;28;19920;-81
2023/12/21 15:47:35;;;;;;;;;;;;;;;;;;6257991;28;20024;-83
2023/12/21 15:50:35;;;;;;;;;;;;;;;;;;6251047;28;19970;-84
2023/12/21 15:53:35;;;;;;;;;;;;;;;;;;6255619;28;20381;-83
2023/12/21 15:56:35;;;;;;;;;;;;;;;;;;6252571;28;19928;-83
2023/12/21 15:59:35;;;;;;;;;;;;;;;;;;6255774;28;20012;-84
2023/12/21 16:02:35;;;;;;;;;;;;;;;;;;6247070;28;19968;-84
2023/12/21 16:05:36;;;;;;;;;;;;;;;;;;6252570;28;19917;-83
2023/12/21 16:08:36;;;;;;;;;;;;;;;;;;6247511;28;19917;-82
2023/12/21 16:11:36;;;;;;;;;;;;;;;;;;6249746;28;19932;-83
2023/12/21 16:14:36;;;;;;;;;;;;;;;;;;6245726;28;20371;-83
2023/12/21 16:17:36;;;;;;;;;;;;;;;;;;6248878;28;19921;-83
2023/12/21 16:20:36;;;;;;;;;;;;;;;;;;6251689;28;19916;-84
2023/12/21 16:23:37;;;;;;;;;;;;;;;;;;6249903;28;20178;-83
2023/12/21 16:26:37;;;;;;;;;;;;;;;;;;6249842;28;19935;-83
2023/12/21 16:29:37;;;;;;;;;;;;;;;;;;6247012;28;19913;-84
2023/12/21 16:32:37;;;;;;;;;;;;;;;;;;6253132;28;19980;-83
2023/12/21 16:35:38;;;;;;;;;;;;;;;;;;6253325;28;19917;-84
2023/12/21 16:38:40;;;;;;;;;;;;;;;;;;6248672;28;19943;-84
2023/12/21 16:41:40;;;;;;;;;;;;;;;;;;6249620;28;21187;-84
2023/12/21 16:44:40;;;;;;;;;;;;;;;;;;6242953;28;19927;-84
2023/12/21 16:47:41;;;;;;;;;;;;;;;;;;6245876;28;19921;-84
2023/12/21 16:50:42;;;;;;;;;;;;;;;;;;6246745;28;19917;-83
2023/12/21 16:53:42;;;;;;;;;;;;;;;;;;6247871;28;19913;-84
2023/12/21 16:56:43;;;;;;;;;;;;;;;;;;6251405;28;19914;-86
2023/12/21 16:59:43;;;;;;;;;;;;;;;;;;6246487;28;20024;-84
2023/12/21 17:02:43;;;;;;;;;;;;;;;;;;6245391;28;20341;-84
2023/12/21 17:05:44;;;;;;;;;;;;;;;;;;6246735;28;20288;-84
2023/12/21 17:08:44;;;;;;;;;;;;;;;;;;6256267;28;19913;-84
2023/12/21 17:11:44;;;;;;;;;;;;;;;;;;6243951;28;19983;-84
2023/12/21 17:14:44;;;;;;;;;;;;;;;;;;6244842;28;19913;-84
2023/12/21 17:17:44;;;;;;;;;;;;;;;;;;6247319;28;19929;-85
2023/12/21 17:20:44;;;;;;;;;;;;;;;;;;6248870;28;20336;-84
2023/12/21 17:23:45;;;;;;;;;;;;;;;;;;6248843;28;19944;-82
2023/12/21 17:26:45;;;;;;;;;;;;;;;;;;6247839;28;20016;-82
2023/12/21 17:29:45;;;;;;;;;;;;;;;;;;6243869;28;19913;-82
2023/12/21 17:32:45;;;;;;;;;;;;;;;;;;6247818;28;19921;-80
2023/12/21 17:35:45;;;;;;;;;;;;;;;;;;6252713;28;19921;-81
2023/12/21 17:38:45;;;;;;;;;;;;;;;;;;6242345;28;19921;-82
2023/12/21 17:41:49;;;;;;;;;;;;;;;;;;6247147;28;19917;-89
2023/12/21 17:44:49;;;;;;;;;;;;;;;;;;6250362;28;20305;-88
2023/12/21 17:47:49;;;;;;;;;;;;;;;;;;6254137;28;19923;-89
2023/12/21 17:50:49;;;;;;;;;;;;;;;;;;6250381;28;19920;-85
2023/12/21 17:53:49;;;;;;;;;;;;;;;;;;6248454;28;19956;-87
2023/12/21 17:56:49;;;;;;;;;;;;;;;;;;6247746;28;19948;-88
2023/12/21 17:59:50;;;;;;;;;;;;;;;;;;6255430;28;20011;-86
2023/12/21 18:02:50;;;;;;;;;;;;;;;;;;6252755;28;20015;-88
2023/12/21 18:05:50;;;;;;;;;;;;;;;;;;6247833;28;19920;-88
2023/12/21 18:08:50;;;;;;;;;;;;;;;;;;6257525;28;19913;-87
2023/12/21 18:11:50;;;;;;;;;;;;;;;;;;6253690;28;20050;-89
2023/12/21 18:14:51;;;;;;;;;;;;;;;;;;6258456;28;19913;-87
2023/12/21 18:17:51;;;;;;;;;;;;;;;;;;6259910;28;19924;-88
2023/12/21 18:20:51;;;;;;;;;;;;;;;;;;6254575;28;20288;-88
2023/12/21 18:23:52;;;;;;;;;;;;;;;;;;6255589;28;19917;-89
2023/12/21 18:26:52;;;;;;;;;;;;;;;;;;6254868;28;19913;-88
2023/12/21 18:29:56;;;;;;;;;;;;;;;;;;6253245;28;19913;-84
2023/12/21 18:32:56;;;;;;;;;;;;;;;;;;6256268;28;19917;-85
2023/12/21 18:35:57;;;;;;;;;;;;;;;;;;6254811;28;19940;-84
2023/12/21 18:38:57;;;;;;;;;;;;;;;;;;6253812;28;19924;-85
2023/12/21 18:41:57;;;;;;;;;;;;;;;;;;6253332;28;19921;-85
2023/12/21 18:44:58;;;;;;;;;;;;;;;;;;6248516;28;19913;-85
2023/12/21 18:47:58;;;;;;;;;;;;;;;;;;6261794;28;19932;-85
2023/12/21 18:51:00;;;;;;;;;;;;;;;;;;6261019;28;20366;-86
2023/12/21 18:54:00;;;;;;;;;;;;;;;;;;6257120;28;20010;-86
2023/12/21 18:57:00;;;;;;;;;;;;;;;;;;6250841;28;20282;-83
2023/12/21 19:00:00;;;;;;;;;;;;;;;;;;6254858;28;19924;-85
2023/12/21 19:03:00;;;;;;;;;;;;;;;;;;6253006;28;19927;-84
2023/12/21 19:06:00;;;;;;;;;;;;;;;;;;6252773;28;19917;-87
2023/12/21 19:09:01;;;;;;;;;;;;;;;;;;6252545;28;19913;-85
2023/12/21 19:12:01;;;;;;;;;;;;;;;;;;6258720;28;20286;-86
2023/12/21 19:15:01;;;;;;;;;;;;;;;;;;6250631;28;19959;-86
2023/12/21 19:18:01;;;;;;;;;;;;;;;;;;6251024;28;19975;-85
2023/12/21 19:21:01;;;;;;;;;;;;;;;;;;6251818;28;19913;-85
2023/12/21 19:24:01;;;;;;;;;;;;;;;;;;6248927;28;19913;-86
2023/12/21 19:27:02;;;;;;;;;;;;;;;;;;6250110;28;19936;-85
2023/12/21 19:30:02;;;;;;;;;;;;;;;;;;6247689;28;19913;-88
2023/12/21 19:33:05;;;;;;;;;;;;;;;;;;6247341;28;20380;-88
2023/12/21 19:36:05;;;;;;;;;;;;;;;;;;6256968;28;20285;-86
2023/12/21 19:39:06;;;;;;;;;;;;;;;;;;6249960;28;19925;-89
2023/12/21 19:42:07;;;;;;;;;;;;;;;;;;6251439;28;19928;-88
2023/12/21 19:45:07;;;;;;;;;;;;;;;;;;6251309;28;19917;-88
2023/12/21 19:48:08;;;;;;;;;;;;;;;;;;6266834;28;20328;-88
2023/12/21 19:51:08;;;;;;;;;;;;;;;;;;6251815;28;19920;-88
2023/12/21 19:54:09;;;;;;;;;;;;;;;;;;6257549;28;19913;-88
2023/12/21 19:57:09;;;;;;;;;;;;;;;;;;6257667;28;19935;-88
2023/12/21 20:00:09;;;;;;;;;;;;;;;;;;6256479;28;19917;-88
2023/12/21 20:03:09;;;;;;;;;;;;;;;;;;6252633;28;19921;-88
2023/12/21 20:06:10;;;;;;;;;;;;;;;;;;6252292;28;19913;-88
2023/12/21 20:09:10;;;;;;;;;;;;;;;;;;6270066;28;19978;-87
2023/12/21 20:12:11;;;;;;;;;;;;;;;;;;6268602;28;20372;-88
2023/12/21 20:15:11;;;;;;;;;;;;;;;;;;6262657;28;19916;-88
2023/12/21 20:18:11;;;;;;;;;;;;;;;;;;6271238;28;19960;-88
2023/12/21 20:21:13;;;;;;;;;;;;;;;;;;6259679;28;19953;-88
2023/12/21 20:24:13;;;;;;;;;;;;;;;;;;6251916;28;19921;-88
2023/12/21 20:27:14;;;;;;;;;;;;;;;;;;6251943;28;19960;-88
2023/12/21 20:30:14;;;;;;;;;;;;;;;;;;6251294;28;20330;-88
2023/12/21 20:33:14;;;;;;;;;;;;;;;;;;6248279;28;20401;-87